sensor_id;sensor_type;location;lat;lon;timestamp;temperature;humidity
364;DHT22;173;48.718;9.274;2023-06-24T12:28:02;24.30;60.00
364;DHT22;173;48.718;9.274;2023-06-24T12:30:35;33.80;34.40
364;DHT22;173;48.718;9.274;2023-06-24T12:33:07;33.60;35.30
364;DHT22;173;48.718;9.274;2023-06-24T12:35:39;33.50;35.00
364;DHT22;173;48.718;9.274;2023-06-24T12:38:11;34.00;34.70
364;DHT22;173;48.718;9.274;2023-06-24T12:40:44;34.00;32.80
364;DHT22;173;48.718;9.274;2023-06-24T12:43:16;33.90;34.20
364;DHT22;173;48.718;9.274;2023-06-24T12:45:48;34.60;33.60
364;DHT22;173;48.718;9.274;2023-06-24T12:48:19;34.90;32.60
364;DHT22;173;48.718;9.274;2023-06-24T12:50:51;35.10;34.10
364;DHT22;173;48.718;9.274;2023-06-24T12:53:24;35.50;32.40
364;DHT22;173;48.718;9.274;2023-06-24T12:55:56;35.60;32.70
364;DHT22;173;48.718;9.274;2023-06-24T12:58:27;35.50;31.90
364;DHT22;173;48.718;9.274;2023-06-24T13:00:59;35.40;32.00
364;DHT22;173;48.718;9.274;2023-06-24T13:03:31;35.20;32.80
364;DHT22;173;48.718;9.274;2023-06-24T13:06:03;35.10;32.60
364;DHT22;173;48.718;9.274;2023-06-24T13:08:36;35.60;32.80
364;DHT22;173;48.718;9.274;2023-06-24T13:11:08;35.70;31.40
364;DHT22;173;48.718;9.274;2023-06-24T13:13:40;35.80;33.00
364;DHT22;173;48.718;9.274;2023-06-24T13:16:11;36.40;30.90
364;DHT22;173;48.718;9.274;2023-06-24T13:18:43;36.90;30.90
364;DHT22;173;48.718;9.274;2023-06-24T13:21:17;36.80;31.60
364;DHT22;173;48.718;9.274;2023-06-24T13:23:50;37.10;31.70
364;DHT22;173;48.718;9.274;2023-06-24T13:26:22;37.20;30.80
364;DHT22;173;48.718;9.274;2023-06-24T13:28:54;37.00;29.90
364;DHT22;173;48.718;9.274;2023-06-24T13:31:26;37.20;31.00
364;DHT22;173;48.718;9.274;2023-06-24T13:33:58;37.20;30.60
364;DHT22;173;48.718;9.274;2023-06-24T13:36:33;37.70;29.40
364;DHT22;173;48.718;9.274;2023-06-24T13:39:08;36.70;30.20
364;DHT22;173;48.718;9.274;2023-06-24T13:41:41;36.20;30.30
364;DHT22;173;48.718;9.274;2023-06-24T13:44:14;36.00;30.20
364;DHT22;173;48.718;9.274;2023-06-24T13:46:47;36.50;29.90
364;DHT22;173;48.718;9.274;2023-06-24T13:49:22;37.10;29.60
364;DHT22;173;48.718;9.274;2023-06-24T13:51:54;37.40;30.20
364;DHT22;173;48.718;9.274;2023-06-24T13:54:26;37.70;29.90
364;DHT22;173;48.718;9.274;2023-06-24T13:56:59;37.90;28.10
364;DHT22;173;48.718;9.274;2023-06-24T13:59:31;37.40;29.40
364;DHT22;173;48.718;9.274;2023-06-24T14:02:04;36.60;29.90
364;DHT22;173;48.718;9.274;2023-06-24T14:07:22;36.40;30.80
364;DHT22;173;48.718;9.274;2023-06-24T14:09:56;37.70;29.10
364;DHT22;173;48.718;9.274;2023-06-24T14:12:28;36.90;29.10
364;DHT22;173;48.718;9.274;2023-06-24T14:15:00;36.40;32.10
364;DHT22;173;48.718;9.274;2023-06-24T14:17:34;36.10;31.30
364;DHT22;173;48.718;9.274;2023-06-24T14:20:08;35.70;32.40
364;DHT22;173;48.718;9.274;2023-06-24T14:22:41;36.30;30.20
364;DHT22;173;48.718;9.274;2023-06-24T14:25:13;36.50;30.60
364;DHT22;173;48.718;9.274;2023-06-24T14:27:47;36.90;30.20
364;DHT22;173;48.718;9.274;2023-06-24T14:30:19;37.00;30.20
364;DHT22;173;48.718;9.274;2023-06-24T14:32:51;37.50;29.10
364;DHT22;173;48.718;9.274;2023-06-24T14:35:23;37.20;29.00
364;DHT22;173;48.718;9.274;2023-06-24T14:37:56;36.30;30.10
364;DHT22;173;48.718;9.274;2023-06-24T14:40:28;35.30;32.00
364;DHT22;173;48.718;9.274;2023-06-24T14:45:24;35.10;32.10
364;DHT22;173;48.718;9.274;2023-06-24T14:47:58;33.10;34.20
364;DHT22;173;48.718;9.274;2023-06-24T14:50:30;33.50;33.90
364;DHT22;173;48.718;9.274;2023-06-24T14:53:02;34.20;33.10
364;DHT22;173;48.718;9.274;2023-06-24T14:55:34;35.30;31.80
364;DHT22;173;48.718;9.274;2023-06-24T14:58:06;36.30;29.80
364;DHT22;173;48.718;9.274;2023-06-24T15:00:38;36.90;31.20
364;DHT22;173;48.718;9.274;2023-06-24T15:03:12;37.30;30.10
364;DHT22;173;48.718;9.274;2023-06-24T15:05:44;37.90;29.50
364;DHT22;173;48.718;9.274;2023-06-24T15:08:17;38.60;28.90
364;DHT22;173;48.718;9.274;2023-06-24T15:10:48;38.40;27.80
364;DHT22;173;48.718;9.274;2023-06-24T15:13:20;39.10;27.70
364;DHT22;173;48.718;9.274;2023-06-24T15:15:53;39.80;27.50
364;DHT22;173;48.718;9.274;2023-06-24T15:18:27;39.40;26.90
364;DHT22;173;48.718;9.274;2023-06-24T15:20:59;38.70;27.70
364;DHT22;173;48.718;9.274;2023-06-24T15:23:31;38.80;28.50
364;DHT22;173;48.718;9.274;2023-06-24T15:26:03;38.70;28.50
364;DHT22;173;48.718;9.274;2023-06-24T15:28:35;37.70;29.10
364;DHT22;173;48.718;9.274;2023-06-24T15:31:07;37.40;28.30
364;DHT22;173;48.718;9.274;2023-06-24T15:33:39;37.20;29.30
364;DHT22;173;48.718;9.274;2023-06-24T15:36:12;37.80;29.60
364;DHT22;173;48.718;9.274;2023-06-24T15:38:44;39.90;27.90
364;DHT22;173;48.718;9.274;2023-06-24T15:41:16;41.30;26.30
364;DHT22;173;48.718;9.274;2023-06-24T15:43:50;42.60;24.00
364;DHT22;173;48.718;9.274;2023-06-24T15:46:24;43.40;24.20
364;DHT22;173;48.718;9.274;2023-06-24T15:48:58;44.20;24.50
364;DHT22;173;48.718;9.274;2023-06-24T15:51:30;44.60;23.40
364;DHT22;173;48.718;9.274;2023-06-24T15:54:04;45.00;24.00
364;DHT22;173;48.718;9.274;2023-06-24T15:56:39;45.20;23.10
364;DHT22;173;48.718;9.274;2023-06-24T15:59:22;44.70;22.50
364;DHT22;173;48.718;9.274;2023-06-24T16:01:53;44.20;22.80
364;DHT22;173;48.718;9.274;2023-06-24T16:04:25;43.50;24.00
364;DHT22;173;48.718;9.274;2023-06-24T16:06:59;43.90;24.30
364;DHT22;173;48.718;9.274;2023-06-24T16:09:31;44.20;24.30
364;DHT22;173;48.718;9.274;2023-06-24T16:12:02;43.70;23.70
364;DHT22;173;48.718;9.274;2023-06-24T16:14:35;43.60;24.50
364;DHT22;173;48.718;9.274;2023-06-24T16:17:07;43.80;23.80
364;DHT22;173;48.718;9.274;2023-06-24T16:19:39;43.30;23.40
364;DHT22;173;48.718;9.274;2023-06-24T16:22:11;43.00;24.40
364;DHT22;173;48.718;9.274;2023-06-24T16:24:43;43.30;23.40
364;DHT22;173;48.718;9.274;2023-06-24T16:27:15;42.90;24.40
364;DHT22;173;48.718;9.274;2023-06-24T16:29:47;43.10;24.10
364;DHT22;173;48.718;9.274;2023-06-24T16:32:19;43.70;22.90
364;DHT22;173;48.718;9.274;2023-06-24T16:34:51;44.30;22.90
364;DHT22;173;48.718;9.274;2023-06-24T16:37:23;44.80;22.40
364;DHT22;173;48.718;9.274;2023-06-24T16:39:55;44.90;22.40
364;DHT22;173;48.718;9.274;2023-06-24T16:42:27;44.40;22.70
364;DHT22;173;48.718;9.274;2023-06-24T16:44:59;44.20;22.50
364;DHT22;173;48.718;9.274;2023-06-24T16:47:30;43.90;22.70
364;DHT22;173;48.718;9.274;2023-06-24T16:50:02;43.70;23.10
364;DHT22;173;48.718;9.274;2023-06-24T16:52:35;43.80;23.70
364;DHT22;173;48.718;9.274;2023-06-24T16:55:08;43.80;23.70
364;DHT22;173;48.718;9.274;2023-06-24T16:57:40;43.40;23.40
364;DHT22;173;48.718;9.274;2023-06-24T17:00:13;43.30;23.90
364;DHT22;173;48.718;9.274;2023-06-24T17:02:45;43.30;24.00
364;DHT22;173;48.718;9.274;2023-06-24T17:05:17;43.60;23.20
364;DHT22;173;48.718;9.274;2023-06-24T17:07:49;42.90;23.50
364;DHT22;173;48.718;9.274;2023-06-24T17:10:21;42.60;23.90
364;DHT22;173;48.718;9.274;2023-06-24T17:12:53;42.20;24.40
364;DHT22;173;48.718;9.274;2023-06-24T17:15:25;41.90;24.70
364;DHT22;173;48.718;9.274;2023-06-24T17:17:57;41.20;25.00
364;DHT22;173;48.718;9.274;2023-06-24T17:20:29;40.30;25.30
364;DHT22;173;48.718;9.274;2023-06-24T17:23:01;39.70;26.40
364;DHT22;173;48.718;9.274;2023-06-24T17:25:32;39.20;26.00
364;DHT22;173;48.718;9.274;2023-06-24T17:28:05;38.70;27.30
364;DHT22;173;48.718;9.274;2023-06-24T17:30:36;37.90;27.90
364;DHT22;173;48.718;9.274;2023-06-24T17:33:08;37.10;28.70
364;DHT22;173;48.718;9.274;2023-06-24T17:35:40;36.40;29.40
364;DHT22;173;48.718;9.274;2023-06-24T17:38:12;35.80;29.20
